Database: COMPET-N - COOP - 3PL - 4PL - CNDOOM

WAD: Doom | Doom 2 | TNT | Plutonia | AV | HR | Scythe | MM | MM2 | Requiem | CE
Category: speed | nmare | max | nm100s | tyson | pacifist | fast | respawn | nomo | misc | built | all
Highscore: ALL | IWAD | PWAD | Country | Continent

< Previous map       Next map >
Remove: wad | map | category | player | allMAP02
MapPlayerTimeDateFilenameCommentsDL
MAP02: Gateway LabXepop 11.002009-12-07hr02-011.zip - 279
MAP02: Gateway LabCack_handed 15.002006-09-13hr02-015.zip - 146
MAP02: Gateway LabJakub Machata42.002003-08-31hr02-042.zip - 98
MAP02: Gateway LabJakub Machata46.002003-03-29hr02-046.zip - 131
MAP02: Gateway LabJakub Machata48.002003-02-21hr02-048.zip - 115
MAP02: Gateway LabJakub Machata55.002003-02-18hr02-055.zip - 110
MAP02: Gateway LabCasey Alvis1:06.002003-01-19hr02-106.zip - 101
MAP02: Gateway LabJakub Machata1:15.002003-01-19hr02-115.zip - 105
MAP02: Gateway LabCasey Alvis1:16.002003-01-19hr02-116.zip - 86
MAP02: Gateway LabJakub Machata1:24.002003-01-18hr02-124.zip - 96
MAP02: Gateway LabCasey Alvis1:28.002003-01-09hr02-128.zip - 106
MAP02: Gateway LabJakub Machata1:37.002003-01-09hr02-137.zip - 104
MAP02: Gateway LabCasey Alvis1:40.002003-01-05hr02-140.zip - 91
MAP02: Gateway LabSelim Benabdelkhalek1:42.002001-06-25hr02-142.zip - 84
MAP02: Gateway LabDoug Merrill1:44.002001-02-25hr02-144.zip - 114
MAP02: Gateway LabXepop 11.002009-12-08hn02-011.zip - 275
MAP02: Gateway LabCack_handed 19.002006-09-13hn02-019.zip - 171
MAP02: Gateway LabDrew DeVore2:05.002013-07-06hr02-205.zip - 234
MAP02: Gateway LabRadek Pecka2:10.002003-11-02hr02-210.zip - 113
MAP02: Gateway LabJakub Machata2:16.002003-04-30hr02-216.zip - 116
MAP02: Gateway LabJakub Machata2:17.002003-04-26hr02-217.zip - 95
MAP02: Gateway LabJakub Machata2:24.002003-04-03hr02-224.zip - 95
MAP02: Gateway LabRadek Pecka2:26.002001-04-04hr02-226.zip - 144
MAP02: Gateway LabAnders Johnsen2:33.002000-05-15hr02-233.zip - 113
MAP02: Gateway LabAnders Johnsen2:41.001998-04-24hr02-241.zip - 107
MAP02: Gateway LabYonatan Donner3:24.001997-05-25hr02-324.zip - 80
MAP02: Gateway LabJim Leonard1:06.002009-12-22hs02-106.zip - 266
MAP02: Gateway LabJim Leonard9:47.002002-04-27ht02-947.zip - 255
MAP02: Gateway LabChris Ratcliff12:22.002001-12-24ht021222.zip - 132
MAP02: Gateway LabErwin Lin16:13.002001-11-21ht021613.zip - 94
MAP02: Gateway LabXepop 11.002009-12-07hp02-011.zip - 290
MAP02: Gateway LabCack_handed 15.002006-09-13hp02-015.zip - 152
MAP02: Gateway LabJakub Machata2:37.002003-07-01hf02-237.zip - 189
MAP02: Gateway LabJakub Machata2:44.002003-03-30hf02-244.zip - 115
MAP02: Gateway LabAnders Johnsen2:54.002000-05-15hf02-254.zip - 131
MAP02: Gateway LabYonatan Donner3:53.001998-05-24hf02-353.zip - 102
MAP02: Gateway LabJakub Machata2:10.002003-07-12he02-210.zip - 239
MAP02: Gateway LabJakub Machata2:28.002003-04-03he02-228.zip - 123
MAP02: Gateway LabJakub Machata2:40.002003-02-19he02-240.zip - 108
MAP02: Gateway LabCasey Alvis3:56.002002-07-10he02-356.zip - 95
Remove: wad | map | category | player | all